createdAt,value
2022-08-16T00:01:26.500Z,5.93
2022-08-16T00:03:58.178Z,5.63
2022-08-16T00:06:26.881Z,5.50
2022-08-16T00:08:55.482Z,6.13
2022-08-16T00:11:24.498Z,5.95
2022-08-16T00:13:55.466Z,5.85
2022-08-16T00:17:01.478Z,5.43
2022-08-16T00:19:22.900Z,6.03
2022-08-16T00:22:01.438Z,6.38
2022-08-16T00:24:32.959Z,5.43
2022-08-16T00:27:05.719Z,5.65
2022-08-16T00:29:42.318Z,5.97
2022-08-16T00:34:53.024Z,5.78
2022-08-16T00:37:56.607Z,6.40
2022-08-16T00:40:36.615Z,5.35
2022-08-16T00:43:12.173Z,5.35
2022-08-16T00:45:59.938Z,5.47
2022-08-16T00:48:44.097Z,5.55
2022-08-16T00:51:20.547Z,5.72
2022-08-16T00:53:53.533Z,5.70
2022-08-16T00:56:58.262Z,5.95
2022-08-16T01:01:58.212Z,5.30
2022-08-16T01:04:30.009Z,5.80
2022-08-16T01:07:02.834Z,5.18
2022-08-16T01:09:34.262Z,5.45
2022-08-16T01:12:08.505Z,6.00
2022-08-16T01:14:48.100Z,5.55
2022-08-16T01:17:20.094Z,5.95
2022-08-16T01:20:00.637Z,5.47
2022-08-16T01:22:52.796Z,4.90
2022-08-16T01:25:34.433Z,5.57
2022-08-16T01:28:10.563Z,5.15
2022-08-16T01:30:55.670Z,5.53
2022-08-16T01:33:24.747Z,5.72
2022-08-16T01:36:11.589Z,5.85
2022-08-16T01:38:49.293Z,5.55
2022-08-16T01:41:31.487Z,6.15
2022-08-16T01:44:03.124Z,5.72
2022-08-16T01:46:39.696Z,6.03
2022-08-16T01:49:19.443Z,5.55
2022-08-16T01:51:54.442Z,5.57
2022-08-16T01:54:30.483Z,6.43
2022-08-16T01:57:01.721Z,5.75
2022-08-16T02:02:52.427Z,6.53
2022-08-16T02:05:25.587Z,6.07
2022-08-16T02:08:03.584Z,6.00
2022-08-16T02:10:33.903Z,6.10
2022-08-16T02:13:06.175Z,5.97
2022-08-16T02:15:42.478Z,6.70
2022-08-16T02:18:18.773Z,6.22
2022-08-16T02:21:04.280Z,6.70
2022-08-16T02:23:49.417Z,6.35
2022-08-16T02:26:26.033Z,6.53
2022-08-16T02:28:57.489Z,5.68
2022-08-16T02:32:03.986Z,6.70
2022-08-16T02:34:32.932Z,7.03
2022-08-16T02:37:09.888Z,5.90
2022-08-16T02:39:39.628Z,6.93
2022-08-16T02:42:10.468Z,5.82
2022-08-16T02:44:42.337Z,6.80
2022-08-16T02:47:11.393Z,7.30
2022-08-16T02:49:59.070Z,6.45
2022-08-16T02:52:44.130Z,6.72
2022-08-16T02:55:15.596Z,6.63
2022-08-16T02:57:53.980Z,6.68
2022-08-16T03:00:31.921Z,6.65
2022-08-16T03:03:03.660Z,6.68
2022-08-16T03:05:31.867Z,6.95
2022-08-16T03:08:02.093Z,6.75
2022-08-16T03:10:34.836Z,6.53
2022-08-16T03:13:03.537Z,6.80
2022-08-16T03:15:41.217Z,6.63
2022-08-16T03:18:12.618Z,6.15
2022-08-16T03:20:55.873Z,6.97
2022-08-16T03:23:23.982Z,6.90
2022-08-16T03:25:54.250Z,6.75
2022-08-16T03:28:23.606Z,6.78
2022-08-16T03:30:52.140Z,8.02
2022-08-16T03:33:24.371Z,7.65
2022-08-16T03:36:30.403Z,7.22
2022-08-16T03:38:52.610Z,7.35
2022-08-16T03:41:25.293Z,7.15
2022-08-16T03:43:58.391Z,7.45
2022-08-16T03:46:44.997Z,7.13
2022-08-16T03:49:22.546Z,7.22
2022-08-16T03:54:28.457Z,7.70
2022-08-16T03:56:59.008Z,6.90
2022-08-16T03:59:32.393Z,6.97
2022-08-16T04:02:12.231Z,6.82
2022-08-16T04:04:50.670Z,6.32
2022-08-16T04:07:19.781Z,6.75
2022-08-16T04:09:48.502Z,5.93
2022-08-16T04:12:54.778Z,6.60
2022-08-16T04:15:07.827Z,6.85
2022-08-16T04:17:40.829Z,8.00
2022-08-16T04:20:23.591Z,6.38
2022-08-16T04:22:59.297Z,6.43
2022-08-16T04:25:29.585Z,6.05
2022-08-16T04:27:57.284Z,7.45
2022-08-16T04:30:45.020Z,6.70
2022-08-16T04:33:15.376Z,6.70
2022-08-16T04:35:44.150Z,6.20
2022-08-16T04:38:20.951Z,6.60
2022-08-16T04:40:52.266Z,6.70
2022-08-16T04:43:22.226Z,6.85
2022-08-16T04:45:55.118Z,6.28
2022-08-16T04:48:34.179Z,6.30
2022-08-16T04:51:12.395Z,6.15
2022-08-16T04:53:50.540Z,6.22
2022-08-16T04:56:20.896Z,6.25
2022-08-16T04:58:51.513Z,5.95
2022-08-16T05:01:55.876Z,5.90
2022-08-16T05:04:19.487Z,6.10
2022-08-16T05:06:49.584Z,6.50
2022-08-16T05:09:25.172Z,6.45
2022-08-16T05:11:57.479Z,6.72
2022-08-16T05:14:46.377Z,6.75
2022-08-16T05:17:24.719Z,6.68
2022-08-16T05:19:58.993Z,5.78
2022-08-16T05:22:36.586Z,6.50
2022-08-16T05:25:09.181Z,6.68
2022-08-16T05:27:43.385Z,6.05
2022-08-16T05:33:04.398Z,6.68
2022-08-16T05:35:31.975Z,5.93
2022-08-16T05:38:30.757Z,6.50
2022-08-16T05:41:04.534Z,6.03
2022-08-16T05:43:43.133Z,6.05
2022-08-16T05:46:30.273Z,6.32
2022-08-16T05:49:17.226Z,6.43
2022-08-16T05:51:51.200Z,6.00
2022-08-16T05:54:25.273Z,6.57
2022-08-16T05:56:59.957Z,6.30
2022-08-16T05:59:28.610Z,7.15
2022-08-16T06:01:58.607Z,6.20
2022-08-16T06:04:34.916Z,6.40
2022-08-16T06:07:09.023Z,6.13
2022-08-16T06:09:59.818Z,6.15
2022-08-16T06:12:31.738Z,7.05
2022-08-16T06:15:10.132Z,6.45
2022-08-16T06:17:44.101Z,6.47
2022-08-16T06:20:34.815Z,6.68
2022-08-16T06:23:24.167Z,6.50
2022-08-16T06:25:58.580Z,7.30
2022-08-16T06:28:34.915Z,6.95
2022-08-16T06:31:11.952Z,6.88
2022-08-16T06:33:45.651Z,6.05
2022-08-16T06:36:17.174Z,6.57
2022-08-16T06:39:06.413Z,5.82
2022-08-16T06:41:55.328Z,5.85
2022-08-16T06:44:53.706Z,6.43
2022-08-16T06:47:53.655Z,7.28
2022-08-16T06:50:29.714Z,7.13
2022-08-16T06:53:08.963Z,5.88
2022-08-16T06:55:57.766Z,5.82
2022-08-16T06:58:31.430Z,6.25
2022-08-16T07:01:09.950Z,7.30
2022-08-16T07:03:55.739Z,6.88
2022-08-16T07:06:31.543Z,6.97
2022-08-16T07:09:03.005Z,6.80
2022-08-16T07:11:46.165Z,7.20
2022-08-16T07:14:30.419Z,7.00
2022-08-16T07:17:00.591Z,7.10
2022-08-16T07:20:01.363Z,7.57
2022-08-16T07:22:38.286Z,7.05
2022-08-16T07:25:15.972Z,6.18
2022-08-16T07:27:45.329Z,6.32
2022-08-16T07:30:39.714Z,6.80
2022-08-16T07:33:15.789Z,5.97
2022-08-16T07:35:49.696Z,6.47
2022-08-16T07:38:20.150Z,6.30
2022-08-16T07:41:09.721Z,5.43
2022-08-16T07:43:41.664Z,6.97
2022-08-16T07:46:38.402Z,5.85
2022-08-16T07:49:02.366Z,6.43
2022-08-16T07:51:37.388Z,7.00
2022-08-16T07:54:10.736Z,5.85
2022-08-16T07:56:45.315Z,6.35
2022-08-16T07:59:13.845Z,6.32
2022-08-16T08:01:42.649Z,6.10
2022-08-16T08:04:13.475Z,6.70
2022-08-16T08:06:44.568Z,6.38
2022-08-16T08:09:16.221Z,5.25
2022-08-16T08:12:00.008Z,4.70
2022-08-16T08:14:37.362Z,5.57
2022-08-16T08:17:08.559Z,5.47
2022-08-16T08:19:40.303Z,5.75
2022-08-16T08:22:19.438Z,5.95
2022-08-16T08:24:58.968Z,6.05
2022-08-16T08:27:27.959Z,6.18
2022-08-16T08:30:52.391Z,5.82
2022-08-16T08:33:01.822Z,5.85
2022-08-16T08:35:37.022Z,5.22
2022-08-16T08:38:08.611Z,6.20
2022-08-16T08:40:40.803Z,5.80
2022-08-16T08:43:18.103Z,5.80
2022-08-16T08:45:52.904Z,5.68
2022-08-16T08:48:35.058Z,6.03
2022-08-16T08:51:09.723Z,5.63
2022-08-16T08:53:59.364Z,5.85
2022-08-16T08:56:35.134Z,5.15
2022-08-16T08:59:22.206Z,5.70
2022-08-16T09:01:56.274Z,5.47
2022-08-16T09:04:27.735Z,5.78
2022-08-16T09:06:56.358Z,5.90
2022-08-16T09:09:33.486Z,5.82
2022-08-16T09:12:06.999Z,7.28
2022-08-16T09:14:54.942Z,6.03
2022-08-16T09:17:48.966Z,5.97
2022-08-16T09:20:17.428Z,5.72
2022-08-16T09:22:51.287Z,5.88
2022-08-16T09:25:34.482Z,4.85
2022-08-16T09:28:09.138Z,5.88
2022-08-16T09:30:44.426Z,5.88
2022-08-16T09:33:19.916Z,5.78
2022-08-16T09:35:53.306Z,6.43
2022-08-16T09:38:32.245Z,4.75
2022-08-16T09:41:06.371Z,5.25
2022-08-16T09:43:58.570Z,4.40
2022-08-16T09:46:48.296Z,4.50
2022-08-16T09:49:19.890Z,5.50
2022-08-16T09:51:55.589Z,4.95
2022-08-16T09:54:32.554Z,6.13
2022-08-16T09:56:59.948Z,5.57
2022-08-16T09:59:30.592Z,4.55
2022-08-16T10:01:58.124Z,4.90
2022-08-16T10:04:32.975Z,5.40
2022-08-16T10:07:15.008Z,4.25
2022-08-16T10:09:55.104Z,4.43
2022-08-16T10:12:44.537Z,5.55
2022-08-16T10:15:17.672Z,4.80
2022-08-16T10:18:01.245Z,4.60
2022-08-16T10:20:34.982Z,5.20
2022-08-16T10:27:19.334Z,4.85
2022-08-16T10:28:32.563Z,4.93
2022-08-16T10:31:14.727Z,5.05
2022-08-16T10:33:58.813Z,5.15
2022-08-16T10:36:38.969Z,4.68
2022-08-16T10:39:08.505Z,5.03
2022-08-16T10:41:36.247Z,5.28
2022-08-16T10:44:05.033Z,5.10
2022-08-16T10:46:41.584Z,6.35
2022-08-16T10:49:12.074Z,4.75
2022-08-16T10:52:03.481Z,4.75
2022-08-16T10:54:29.238Z,4.53
2022-08-16T10:56:59.162Z,6.70
2022-08-16T10:59:45.811Z,4.60
2022-08-16T11:02:59.115Z,4.72
2022-08-16T11:05:14.124Z,5.72
2022-08-16T11:07:52.513Z,4.60
2022-08-16T11:16:26.513Z,4.97
2022-08-16T11:19:05.940Z,4.70
2022-08-16T11:22:22.908Z,3.92
2022-08-16T11:24:41.244Z,4.05
2022-08-16T11:29:55.218Z,5.15
2022-08-16T11:32:31.940Z,5.20
2022-08-16T11:35:15.702Z,4.22
2022-08-16T11:40:58.068Z,4.60
2022-08-16T11:43:34.923Z,4.80
2022-08-16T11:46:44.879Z,5.38
2022-08-16T11:49:21.959Z,4.82
2022-08-16T11:52:00.070Z,4.40
2022-08-16T11:54:38.048Z,4.30
2022-08-16T11:57:23.294Z,4.57
2022-08-16T12:00:08.431Z,4.93
2022-08-16T12:03:05.474Z,4.57
2022-08-16T12:05:52.119Z,4.20
2022-08-16T12:08:27.941Z,4.28
2022-08-16T12:11:09.138Z,4.47
2022-08-16T12:13:43.587Z,4.22
2022-08-16T12:16:30.965Z,4.07
2022-08-16T12:19:13.641Z,5.47
2022-08-16T12:22:18.626Z,4.25
2022-08-16T12:27:55.473Z,3.90
2022-08-16T12:30:44.141Z,4.28
2022-08-16T12:33:25.514Z,4.50
2022-08-16T12:35:53.972Z,3.67
2022-08-16T12:38:41.759Z,4.35
2022-08-16T12:41:08.358Z,4.47
2022-08-16T12:43:35.717Z,4.95
2022-08-16T12:46:05.713Z,4.28
2022-08-16T12:48:55.936Z,5.20
2022-08-16T12:51:59.815Z,5.00
2022-08-16T12:54:22.371Z,4.47
2022-08-16T12:56:50.384Z,4.60
2022-08-16T12:59:20.347Z,4.57
2022-08-16T13:01:50.661Z,4.28
2022-08-16T13:04:28.390Z,4.30
2022-08-16T13:09:32.000Z,4.13
2022-08-16T13:12:21.019Z,4.25
2022-08-16T13:14:50.076Z,3.63
2022-08-16T13:17:21.615Z,3.78
2022-08-16T13:25:19.450Z,3.90
2022-08-16T13:28:03.411Z,4.80
2022-08-16T13:30:42.098Z,4.38
2022-08-16T13:33:24.809Z,4.10
2022-08-16T13:35:59.497Z,4.40
2022-08-16T13:38:36.448Z,5.07
2022-08-16T13:41:11.975Z,5.57
2022-08-16T13:43:40.977Z,4.85
2022-08-16T13:46:08.387Z,5.15
2022-08-16T13:48:43.977Z,4.25
2022-08-16T13:51:18.477Z,4.30
2022-08-16T13:53:59.256Z,4.32
2022-08-16T13:56:36.918Z,4.28
2022-08-16T13:59:20.177Z,4.68
2022-08-16T14:01:55.079Z,4.10
2022-08-16T14:04:36.501Z,4.57
2022-08-16T14:07:09.572Z,4.25
2022-08-16T14:09:38.307Z,4.35
2022-08-16T14:12:18.071Z,4.35
2022-08-16T14:14:47.987Z,4.10
2022-08-16T14:17:16.533Z,4.75
2022-08-16T14:19:46.269Z,4.20
2022-08-16T14:22:31.057Z,4.45
2022-08-16T14:25:01.440Z,4.80
2022-08-16T14:27:31.182Z,4.38
2022-08-16T14:30:02.435Z,4.25
2022-08-16T14:32:34.124Z,4.28
2022-08-16T14:35:15.280Z,5.28
2022-08-16T14:37:44.466Z,4.03
2022-08-16T14:40:14.287Z,3.75
2022-08-16T14:42:45.084Z,4.03
2022-08-16T14:45:18.921Z,4.13
2022-08-16T14:47:46.318Z,4.88
2022-08-16T14:50:20.135Z,4.38
2022-08-16T14:53:04.415Z,4.05
2022-08-16T14:55:33.747Z,4.47
2022-08-16T14:58:05.203Z,4.50
2022-08-16T15:00:36.719Z,5.57
2022-08-16T15:03:09.712Z,5.05
2022-08-16T15:05:38.662Z,4.45
2022-08-16T15:08:06.251Z,5.57
2022-08-16T15:10:37.289Z,4.95
2022-08-16T15:13:09.410Z,4.78
2022-08-16T15:15:38.304Z,4.90
2022-08-16T15:18:06.549Z,5.70
2022-08-16T15:20:41.791Z,4.78
2022-08-16T15:23:10.154Z,4.75
2022-08-16T15:25:43.292Z,5.03
2022-08-16T15:28:30.604Z,4.78
2022-08-16T15:31:00.881Z,4.80
2022-08-16T15:33:32.269Z,5.30
2022-08-16T15:36:00.343Z,4.97
2022-08-16T15:38:54.668Z,4.78
2022-08-16T15:41:42.769Z,5.10
2022-08-16T15:44:15.550Z,4.43
2022-08-16T15:46:55.777Z,4.80
2022-08-16T15:49:37.659Z,4.53
2022-08-16T15:52:29.333Z,5.15
2022-08-16T15:55:00.605Z,6.93
2022-08-16T15:57:41.472Z,7.53
2022-08-16T16:00:15.366Z,6.25
2022-08-16T16:02:44.717Z,5.32
2022-08-16T16:05:12.508Z,5.68
2022-08-16T16:07:56.157Z,6.55
2022-08-16T16:10:29.453Z,4.90
2022-08-16T16:13:00.665Z,4.80
2022-08-16T16:15:33.806Z,5.18
2022-08-16T16:18:09.306Z,4.55
2022-08-16T16:20:48.178Z,5.80
2022-08-16T16:23:21.273Z,5.30
2022-08-16T16:25:55.065Z,4.57
2022-08-16T16:29:05.313Z,5.47
2022-08-16T16:31:18.561Z,4.88
2022-08-16T16:33:50.381Z,5.50
2022-08-16T16:36:29.352Z,4.57
2022-08-16T16:38:58.600Z,5.50
2022-08-16T16:41:28.735Z,4.65
2022-08-16T16:44:01.214Z,4.97
2022-08-16T16:46:42.555Z,4.85
2022-08-16T16:49:14.025Z,4.87
2022-08-16T16:51:44.481Z,4.57
2022-08-16T16:56:57.740Z,5.57
2022-08-16T16:59:25.654Z,5.22
2022-08-16T17:02:38.217Z,4.85
2022-08-16T17:04:44.849Z,5.28
2022-08-16T17:07:12.453Z,5.75
2022-08-16T17:09:41.064Z,5.93
2022-08-16T17:12:17.632Z,7.15
2022-08-16T17:14:53.812Z,5.28
2022-08-16T17:17:21.699Z,4.65
2022-08-16T17:19:50.118Z,5.00
2022-08-16T17:22:24.414Z,4.75
2022-08-16T17:25:01.119Z,6.47
2022-08-16T17:27:33.847Z,4.90
2022-08-16T17:30:15.587Z,5.32
2022-08-16T17:32:54.376Z,5.05
2022-08-16T17:35:34.780Z,5.80
2022-08-16T17:38:07.136Z,4.88
2022-08-16T17:40:55.427Z,4.88
2022-08-16T17:43:33.520Z,4.70
2022-08-16T17:46:02.271Z,5.88
2022-08-16T17:48:35.851Z,4.75
2022-08-16T17:51:06.166Z,5.45
2022-08-16T17:53:36.239Z,5.45
2022-08-16T17:56:05.815Z,5.45
2022-08-16T17:58:33.477Z,5.82
2022-08-16T18:01:04.059Z,5.45
2022-08-16T18:04:08.028Z,7.20
2022-08-16T18:06:24.849Z,6.38
2022-08-16T18:09:01.693Z,5.40
2022-08-16T18:11:37.025Z,5.53
2022-08-16T18:14:11.974Z,5.63
2022-08-16T18:16:42.392Z,5.53
2022-08-16T18:19:11.544Z,5.00
2022-08-16T18:21:57.470Z,5.47
2022-08-16T18:24:27.915Z,6.47
2022-08-16T18:26:55.181Z,6.00
2022-08-16T18:29:23.105Z,6.78
2022-08-16T18:31:51.844Z,6.43
2022-08-16T18:34:21.861Z,6.03
2022-08-16T18:36:49.703Z,6.07
2022-08-16T18:39:17.243Z,6.80
2022-08-16T18:41:47.843Z,6.32
2022-08-16T18:44:25.483Z,5.70
2022-08-16T18:46:55.080Z,6.43
2022-08-16T18:49:22.701Z,6.28
2022-08-16T18:51:51.096Z,5.95
2022-08-16T18:54:19.339Z,6.25
2022-08-16T18:56:56.184Z,5.55
2022-08-16T18:59:30.927Z,6.13
2022-08-16T19:04:56.590Z,6.20
2022-08-16T19:07:31.354Z,5.60
2022-08-16T19:10:01.445Z,6.82
2022-08-16T19:12:38.272Z,6.55
2022-08-16T19:15:15.674Z,5.55
2022-08-16T19:17:46.423Z,5.82
2022-08-16T19:20:19.637Z,5.80
2022-08-16T19:25:48.623Z,6.85
2022-08-16T19:28:49.073Z,6.35
2022-08-16T19:31:23.254Z,7.18
2022-08-16T19:33:57.766Z,5.88
2022-08-16T19:36:35.211Z,6.47
2022-08-16T19:39:10.630Z,6.15
2022-08-16T19:41:41.797Z,6.95
2022-08-16T19:44:11.382Z,5.57
2022-08-16T19:46:55.832Z,6.70
2022-08-16T19:49:23.223Z,6.75
2022-08-16T19:51:52.219Z,6.45
2022-08-16T19:54:19.400Z,7.10
2022-08-16T19:56:47.231Z,6.25
2022-08-16T19:59:20.529Z,5.97
2022-08-16T20:01:52.594Z,7.05
2022-08-16T20:04:22.510Z,6.13
2022-08-16T20:06:52.511Z,6.45
2022-08-16T20:09:22.306Z,5.53
2022-08-16T20:11:58.589Z,7.32
2022-08-16T20:14:26.640Z,6.75
2022-08-16T20:16:56.331Z,6.45
2022-08-16T20:19:26.338Z,6.78
2022-08-16T20:21:56.838Z,7.10
2022-08-16T20:24:35.529Z,6.00
2022-08-16T20:27:08.163Z,7.15
2022-08-16T20:29:40.178Z,5.85
2022-08-16T20:32:10.093Z,6.13
2022-08-16T20:34:38.185Z,6.43
2022-08-16T20:37:06.662Z,6.95
2022-08-16T20:39:36.013Z,6.93
2022-08-16T20:42:03.538Z,7.20
2022-08-16T20:44:33.506Z,7.20
2022-08-16T20:47:01.514Z,7.07
2022-08-16T20:49:31.909Z,6.60
2022-08-16T20:51:59.911Z,6.60
2022-08-16T20:54:30.729Z,7.38
2022-08-16T20:56:58.388Z,6.60
2022-08-16T20:59:26.455Z,7.47
2022-08-16T21:01:54.414Z,6.72
2022-08-16T21:04:25.899Z,7.45
2022-08-16T21:06:54.994Z,6.68
2022-08-16T21:09:26.073Z,6.80
2022-08-16T21:12:00.536Z,7.35
2022-08-16T21:14:29.856Z,7.63
2022-08-16T21:17:06.270Z,6.63
2022-08-16T21:19:34.524Z,6.57
2022-08-16T21:22:22.332Z,5.95
2022-08-16T21:24:53.787Z,6.82
2022-08-16T21:27:21.515Z,5.72
2022-08-16T21:29:55.623Z,6.68
2022-08-16T21:32:35.708Z,6.97
2022-08-16T21:35:16.467Z,6.53
2022-08-16T21:37:59.957Z,6.75
2022-08-16T21:40:37.190Z,6.63
2022-08-16T21:43:13.077Z,6.60
2022-08-16T21:45:42.564Z,6.85
2022-08-16T21:48:14.227Z,7.30
2022-08-16T21:50:44.639Z,6.78
2022-08-16T21:53:17.674Z,6.78
2022-08-16T21:55:48.204Z,6.78
2022-08-16T21:58:16.443Z,6.80
2022-08-16T22:00:44.062Z,7.22
2022-08-16T22:03:15.255Z,6.43
2022-08-16T22:05:44.705Z,7.03
2022-08-16T22:08:12.385Z,5.95
2022-08-16T22:11:04.164Z,6.35
2022-08-16T22:13:32.030Z,6.72
2022-08-16T22:15:59.570Z,6.50
2022-08-16T22:18:26.936Z,6.55
2022-08-16T22:20:55.398Z,6.05
2022-08-16T22:23:25.467Z,6.80
2022-08-16T22:25:55.469Z,7.32
2022-08-16T22:28:24.768Z,7.45
2022-08-16T22:30:53.347Z,7.60
2022-08-16T22:33:25.058Z,7.38
2022-08-16T22:35:55.817Z,6.90
2022-08-16T22:38:54.411Z,6.78
2022-08-16T22:41:11.874Z,7.53
2022-08-16T22:43:39.894Z,6.90
2022-08-16T22:46:07.958Z,7.32
2022-08-16T22:48:39.244Z,7.88
2022-08-16T22:51:10.558Z,7.93
2022-08-16T22:53:38.389Z,7.03
2022-08-16T22:56:06.007Z,8.40
2022-08-16T22:58:37.126Z,7.53
2022-08-16T23:01:10.773Z,7.47
2022-08-16T23:03:39.011Z,7.43
2022-08-16T23:06:07.429Z,7.88
2022-08-16T23:08:40.611Z,8.23
2022-08-16T23:11:13.969Z,7.15
2022-08-16T23:13:53.184Z,7.53
2022-08-16T23:16:34.615Z,7.68
2022-08-16T23:19:07.243Z,7.82
2022-08-16T23:21:37.626Z,7.63
2022-08-16T23:24:06.769Z,8.30
2022-08-16T23:26:44.589Z,6.93
2022-08-16T23:29:23.607Z,7.38
2022-08-16T23:31:59.788Z,7.45
2022-08-16T23:34:29.160Z,7.93
2022-08-16T23:36:57.658Z,7.18
2022-08-16T23:39:25.383Z,7.60
2022-08-16T23:41:55.763Z,7.25
2022-08-16T23:44:44.095Z,7.10
2022-08-16T23:47:14.600Z,8.32
2022-08-16T23:49:57.857Z,7.90
2022-08-16T23:52:42.293Z,8.02
2022-08-16T23:55:17.541Z,7.22
2022-08-16T23:57:46.589Z,8.32
